Metar Cercanos

 

LEPA - Palma De Mallorc, Spain
Distance from station: ONO 38km
Actualización: Tue, 18-May-2021 1:00am CEST
Few Clouds
Few Clouds
 Viento del calm
Viento: Calma
Temperatura: 15°C
Rocío: 12°C
Humedad: 82%
Barómetro: 1021 hPa
Clouds: Few Clouds
Visibility: 10 km
Cloud details: Few Clouds 975 m
2021/05/17 23:00 LEPA 172300Z 00000KT 9999 FEW032 15/12 Q1021 NOSIG
LEMH - Mahon/Menorca Is, Spain
Distance from station: ENE 105km
Actualización: Tue, 18-May-2021 1:00am CEST
Despejado
Despejado
 Viento del NNE
Viento: NNE 6 km/h
Temperatura: 14°C
Rocío: 10°C
Humedad: 77%
Barómetro: 1021 hPa
Resumen: Despejado
Visibility: greater than 10 km
2021/05/17 23:00 LEMH 172300Z AUTO 03003KT CAVOK 14/10 Q1021
 
LEIB - Ibiza/Es Codola, Spain
Distance from station: OSO 165km
Actualización: Tue, 18-May-2021 1:00am CEST
Despejado
Despejado
 Viento del E
Viento: E 6 km/h
Temperatura: 17°C
Rocío: 15°C
Humedad: 88%
Barómetro: 1021 hPa
Resumen: Despejado
Visibility: greater than 10 km
2021/05/17 23:00 LEIB 172300Z 10003KT 080V140 CAVOK 17/15 Q1021 NOSIG
LEBL - Barcelona Airpor, Spain
Distance from station: NNO 225km
Actualización: Tue, 18-May-2021 1:00am CEST
Parcialmente nuboso
Parcialmente nuboso
 Viento del ESE
Viento: ESE 6 km/h
Temperatura: 16°C
Rocío: 13°C
Humedad: 83%
Barómetro: 1021 hPa
Clouds: Parcialmente nuboso
Visibility: 10 km
Cloud details: Parcialmente nuboso 914 m
2021/05/17 23:00 LEBL 172300Z 11003KT 9999 SCT030 16/13 Q1021 NOSIG
 
LEVC - Valencia (civ/Mi, Spain
Distance from station: NO 188km
Actualización: Tue, 18-May-2021 1:00am CEST
Few Clouds
Few Clouds
 Viento del ENE
Viento: ENE 6 km/h
Temperatura: 18°C
Rocío: 14°C
Humedad: 78%
Barómetro: 1020 hPa
Clouds: Few Clouds
Visibility: 10 km
Cloud details: Few Clouds 762 m
2021/05/17 23:00 LEVC 172300Z 07003KT 030V100 9999 FEW025 18/14 Q1020 NOSIG
LEGE - Gerona/Costa Bra, Spain
Distance from station: N 276km
Actualización: Tue, 18-May-2021 12:30am CEST
Few Clouds
Few Clouds
 Viento del calm
Viento: Calma
Temperatura: 12°C
Rocío: 11°C
Humedad: 94%
Barómetro: 1020 hPa
Clouds: Few Clouds
Visibility: 10 km
Cloud details: Few Clouds 975 m
2021/05/17 22:30 LEGE 172230Z 00000KT 9999 FEW032 12/11 Q1020
 
LEAL - Alicante/El Alte, Spain
Distance from station: OSO 344km
Actualización: Tue, 18-May-2021 1:00am CEST
Despejado
Despejado
 Viento del N
Viento: N 6 km/h
Temperatura: 18°C
Rocío: 15°C
Humedad: 83%
Barómetro: 1020 hPa
Resumen: Despejado
Visibility: greater than 10 km
2021/05/17 23:00 LEAL 172300Z 01003KT 350V050 CAVOK 18/15 Q1020 NOSIG
LEAM - Almeria Airport, Spain
Distance from station: SSO 56km
Actualización: Tue, 18-May-2021 1:00am CEST
Despejado
Despejado
 Viento del ENE
Viento: ENE 13 km/h
Temperatura: 19°C
Rocío: 16°C
Humedad: 83%
Barómetro: 1019 hPa
Resumen: Despejado
Visibility: greater than 10 km
2021/05/17 23:00 LEAM 172300Z AUTO 06007KT 030V090 CAVOK 19/16 Q1019
 
LEZG - Zaragoza (mil/Ci, Spain
Distance from station: NO 431km
Actualización: Tue, 18-May-2021 1:00am CEST
Despejado
Despejado
 Viento del O
Viento: O 17 km/h
Temperatura: 14°C
Rocío: 4°C
Humedad: 51%
Barómetro: 1020 hPa
Resumen: Despejado
Visibility: greater than 10 km
2021/05/17 23:00 LEZG 172300Z 27009KT CAVOK 14/04 Q1020
LEMD - Madrid/Barajas, Spain
Distance from station: ONO 234km
Actualización: Tue, 18-May-2021 1:00am CEST
Despejado
Despejado
 Viento del varies
Viento: varies 4 km/h
Temperatura: 15°C
Rocío: 5°C
Humedad: 51%
Barómetro: 1019 hPa
Resumen: Despejado
Visibility: greater than 10 km
2021/05/17 23:00 LEMD 172300Z VRB02KT CAVOK 15/05 Q1019 NOSIG
 
LEGR - Granada Airport, Spain
Distance from station: OSO 62km
Actualización: Tue, 18-May-2021 1:00am CEST
Despejado
Despejado
 Viento del calm
Viento: Calma
Temperatura: 18°C
Rocío: 10°C
Humedad: 60%
Barómetro: 1020 hPa
Resumen: Despejado
Visibility: greater than 10 km
2021/05/17 23:00 LEGR 172300Z AUTO 00000KT CAVOK 18/10 Q1020
LEMG - Malaga (civ/Mil), Spain
Distance from station: OSO 227km
Actualización: Tue, 18-May-2021 1:00am CEST
Parcialmente nuboso
Parcialmente nuboso
 Viento del ESE
Viento: ESE 7 km/h
Temperatura: 19°C
Rocío: 17°C
Humedad: 88%
Barómetro: 1020 hPa
Clouds: Parcialmente nuboso
Visibility: 10 km
Cloud details: Parcialmente nuboso 305 m
2021/05/17 23:00 LEMG 172300Z 12004KT 9999 SCT010 19/17 Q1020 NOSIG
 
LEZL - Sevilla (civ/Mil, Spain
Distance from station: S 318km
Actualización: Tue, 18-May-2021 1:00am CEST
Despejado
Despejado
 Viento del NO
Viento: NO 7 km/h
Temperatura: 22°C
Rocío: 9°C
Humedad: 44%
Barómetro: 1019 hPa
Resumen: Despejado
Visibility: greater than 10 km
2021/05/17 23:00 LEZL 172300Z 31004KT CAVOK 22/09 Q1019 NOSIG
LEVT - Vitoria, Spain
Distance from station: NO 226km
Actualización: Tue, 18-May-2021 1:00am CEST
Few Clouds
Few Clouds
 Viento del E
Viento: E 4 km/h
Temperatura: 5°C
Rocío: 4°C
Humedad: 93%
Barómetro: 1021 hPa
Clouds: Few Clouds
Visibility: 10 km
Cloud details: Few Clouds 1219 m
2021/05/17 23:00 LEVT 172300Z 09002KT 9999 FEW040 05/04 Q1021
 
LEBB - Bilbao/Sondica, Spain
Distance from station: NNO 235km
Actualización: Tue, 18-May-2021 1:00am CEST
Few Clouds
Few Clouds
 Viento del E
Viento: E 9 km/h
Temperatura: 11°C
Rocío: 9°C
Humedad: 88%
Barómetro: 1021 hPa
Clouds: Few Clouds
Visibility: 10 km
Cloud details: Few Clouds 1981 m
2021/05/17 23:00 LEBB 172300Z AUTO 08005KT 9999 FEW065 11/09 Q1021
LESO - San Sebastian/Fu, Spain
Distance from station: N 231km
Actualización: Tue, 18-May-2021 1:00am CEST
Despejado
Despejado
 Viento del varies
Viento: varies 4 km/h
Temperatura: 11°C
Rocío: 9°C
Humedad: 88%
Barómetro: 1022 hPa
Resumen: Despejado
Visibility: greater than 10 km
2021/05/17 23:00 LESO 172300Z AUTO VRB02KT CAVOK 11/09 Q1022
 
LEVD - Valladolid(Mil/C, Spain
Distance from station: ONO 239km
Actualización: Tue, 18-May-2021 1:00am CEST
Despejado
Despejado
 Viento del OSO
Viento: OSO 13 km/h
Temperatura: 9°C
Sensación frio: 7°C
Rocío: 3°C
Humedad: 66%
Barómetro: 1020 hPa
Resumen: Despejado
Visibility: greater than 10 km
2021/05/17 23:00 LEVD 172300Z AUTO 25007KT CAVOK 09/03 Q1020
LESA - Salamanca (civ/M, Spain
Distance from station: ONO 349km
Actualización: Tue, 18-May-2021 1:00am CEST
Despejado
Despejado
 Viento del SO
Viento: SO 9 km/h
Temperatura: 10°C
Sensación frio: 9°C
Rocío: 4°C
Humedad: 67%
Barómetro: 1021 hPa
Resumen: Despejado
Visibility: greater than 10 km
2021/05/17 23:00 LESA 172300Z AUTO 22005KT CAVOK 10/04 Q1021
 
LEXJ - Santander/Paraya, Spain
Distance from station: NNO 247km
Actualización: Tue, 18-May-2021 1:00am CEST
Despejado
Despejado
 Viento del E
Viento: E 6 km/h
Temperatura: 12°C
Rocío: 10°C
Humedad: 88%
Barómetro: 1021 hPa
Resumen: Despejado
Visibility: greater than 10 km
2021/05/17 23:00 LEXJ 172300Z AUTO 10003KT CAVOK 12/10 Q1021
LEAS - Asturias/Aviles, Spain
Distance from station: NO 214km
Actualización: Tue, 18-May-2021 1:00am CEST
Cubierto
Cubierto
 Viento del E
Viento: E 4 km/h
Temperatura: 12°C
Rocío: 10°C
Humedad: 88%
Barómetro: 1020 hPa
Clouds: Cubierto
Visibility: 10 km
Cloud details: Cubierto 2073 m
2021/05/17 23:00 LEAS 172300Z AUTO 09002KT 9999 OVC068 12/10 Q1020
 
LECO - La Coruna/Alvedr, Spain
Distance from station: ONO 222km
Actualización: Tue, 18-May-2021 1:00am CEST
Muy nuboso
Muy nuboso
 Viento del calm
Viento: Calma
Temperatura: 12°C
Rocío: 11°C
Humedad: 94%
Barómetro: 1019 hPa
Clouds: Muy nuboso
Visibility: 10 km
Cloud details: Muy nuboso 1463 m
2021/05/17 23:00 LECO 172300Z 00000KT 9999 BKN048 12/11 Q1019 NOSIG
LEVX - Vigo/Peinador, Spain
Distance from station: O 214km
Actualización: Tue, 18-May-2021 12:30am CEST
Muy nuboso
Muy nuboso
 Viento del SSO
Viento: SSO 7 km/h
Temperatura: 14°C
Rocío: 10°C
Humedad: 77%
Barómetro: 1020 hPa
Clouds: Muy nuboso
Visibility: 10 km
Cloud details: Muy nuboso 975 m
2021/05/17 22:30 LEVX 172230Z 20004KT 160V220 9999 BKN032 14/10 Q1020 NOSIG